Thunder radar more information blitzortung!


avis per Pluja more information rain snow radar


Visita la nostra xarxa de llocs de meteo:

Template documentation
and downloads

And another site



Rain From: 18-11-2018 11:00 Until: 20:59 warning for: Rain Level: Yellow info button

Pagina Historial Weather Underground text

Diari Resum January 5, 2018 Unitats:  Imperial    Mètric   Tant
« Previous Dia
SegĂźent Dia »
Diari Setmana Mensual Anual Personalitzada
  Maxima: Minima: Media:
Temperatura: TemperatureF °F 41.4 °F 56.5 °F
Punt de rosada: DewpointF °F 29.3 °F 37.3 °F
Humitat: Humidity % 41 % 49 %
Wind Speed: WindSpeedMPH mph 0.0 mph 4.4 mph
RĂ fegues de vent: WindSpeedGustMPH mph - -
Vent:- - WSW
Pression baro: PressureIn in 29.65 in -
Precipitacions: 0.00 in    
Historical Graphs
 
 
Dades de taula per January 5, 2018
Temps Temperatura Punt de rosada Pression baro Vent Wind Speed RĂ fegues de vent Humitat Rainfall Rate (Hourly)
TemperatureF °F DewpointF °F PressureIn in Calm     Humidity % HourlyPrecipIn in
00:00 57.7 °F 39.7 °F 30.06 in NW 4.6 mph 4.6 mph 51 % 0.00 in
00:10 52.3 °F 37.5 °F 29.91 in WSW 3.0 mph 4.0 mph 57 % 0.00 in
00:20 52.3 °F 37.5 °F 29.88 in WSW 3.0 mph 5.0 mph 57 % 0.00 in
00:30 52.2 °F 37.4 °F 29.88 in WSW 3.0 mph 4.0 mph 57 % 0.00 in
00:40 52.3 °F 37.5 °F 29.91 in WSW 3.0 mph 4.0 mph 57 % 0.00 in
00:50 51.6 °F 36.9 °F 29.91 in WSW 2.0 mph 3.0 mph 57 % 0.00 in
01:00 51.1 °F 36.4 °F 29.91 in WSW 2.0 mph 3.0 mph 57 % 0.00 in
01:10 51.1 °F 36.4 °F 29.91 in WSW 3.0 mph 4.0 mph 57 % 0.00 in
01:20 50.9 °F 36.6 °F 29.91 in West 2.0 mph 3.0 mph 58 % 0.00 in
01:30 51.1 °F 36.8 °F 29.91 in West 3.0 mph 3.0 mph 58 % 0.00 in
01:40 51.4 °F 37.1 °F 29.91 in West 2.0 mph 3.0 mph 58 % 0.00 in
01:50 51.8 °F 37.5 °F 29.91 in WSW 2.0 mph 3.0 mph 58 % 0.00 in
02:00 52.0 °F 37.7 °F 29.91 in WSW 3.0 mph 3.0 mph 58 % 0.00 in
02:10 52.0 °F 37.7 °F 29.91 in WSW 3.0 mph 4.0 mph 58 % 0.00 in
02:20 51.6 °F 37.3 °F 29.91 in WSW 2.0 mph 4.0 mph 58 % 0.00 in
02:30 51.1 °F 36.8 °F 29.91 in WSW 1.0 mph 4.0 mph 58 % 0.00 in
03:00 51.8 °F 37.9 °F 29.94 in WSW 2.0 mph 3.0 mph 59 % 0.00 in
03:10 52.0 °F 38.1 °F 29.91 in WSW 1.0 mph 4.0 mph 59 % 0.00 in
03:20 52.3 °F 38.4 °F 29.91 in WSW 2.0 mph 3.0 mph 59 % 0.00 in
03:30 53.1 °F 39.1 °F 29.91 in West 2.0 mph 3.0 mph 59 % 0.00 in
03:40 53.6 °F 39.6 °F 29.94 in West 3.0 mph 3.0 mph 59 % 0.00 in
03:50 54.3 °F 40.3 °F 29.91 in West 1.0 mph 3.0 mph 59 % 0.00 in
04:00 54.9 °F 40.4 °F 29.91 in WSW 3.0 mph 6.0 mph 58 % 0.00 in
10:02 55.4 °F 40.4 °F 29.91 in West 5.8 mph 5.8 mph 57 % 0.00 in
10:05 55.8 °F 40.7 °F 29.91 in WSW 3.5 mph 3.5 mph 57 % 0.00 in
10:10 56.3 °F 41.3 °F 29.94 in West 4.6 mph 4.6 mph 57 % 0.00 in
10:11 56.5 °F 41.4 °F 29.94 in WNW 3.5 mph 3.5 mph 57 % 0.00 in
10:16 56.8 °F 41.8 °F 29.94 in West 3.5 mph 3.5 mph 57 % 0.00 in
10:17 56.8 °F 41.8 °F 29.94 in SW 4.9 mph 4.9 mph 57 % 0.00 in
10:22 57.4 °F 41.8 °F 29.91 in WNW 3.5 mph 3.5 mph 56 % 0.00 in
10:27 57.6 °F 42.0 °F 29.91 in WSW 5.8 mph 5.8 mph 56 % 0.00 in
10:32 57.7 °F 42.1 °F 29.91 in SW 4.6 mph 4.6 mph 56 % 0.00 in
10:35 57.7 °F 42.1 °F 29.91 in West 9.4 mph 9.4 mph 56 % 0.00 in
10:41 57.9 °F 41.8 °F 29.88 in West 5.9 mph 5.9 mph 55 % 0.00 in
10:42 57.9 °F 41.8 °F 29.88 in West 5.8 mph 6.0 mph 55 % 0.00 in
10:47 58.5 °F 42.3 °F 29.88 in West 5.9 mph 5.9 mph 55 % 0.00 in
10:48 58.3 °F 42.2 °F 29.88 in West 8.1 mph 8.1 mph 55 % 0.00 in
10:53 58.6 °F 42.0 °F 29.88 in WSW 8.1 mph 8.1 mph 54 % 0.00 in
10:55 58.6 °F 42.0 °F 29.88 in WSW 11.5 mph 11.5 mph 54 % 0.00 in
10:59 58.8 °F 42.2 °F 29.88 in West 5.8 mph 5.8 mph 54 % 0.00 in
11:03 59.0 °F 42.4 °F 29.88 in West 8.1 mph 8.1 mph 54 % 0.00 in
11:08 59.4 °F 42.2 °F 29.88 in WSW 4.6 mph 4.6 mph 53 % 0.00 in
11:10 59.4 °F 42.2 °F 29.88 in SW 13.2 mph 13.2 mph 53 % 0.00 in
11:15 59.7 °F 42.6 °F 29.88 in NW 5.8 mph 5.8 mph 53 % 0.00 in
11:17 59.7 °F 42.6 °F 29.88 in ENE 7.8 mph 7.8 mph 53 % 0.00 in
11:22 60.1 °F 42.9 °F 29.88 in WSW 3.5 mph 3.5 mph 53 % 0.00 in
11:23 60.1 °F 42.9 °F 29.88 in SW 5.4 mph 5.4 mph 53 % 0.00 in
11:28 60.1 °F 42.4 °F 29.88 in WSW 5.8 mph 5.8 mph 52 % 0.00 in
11:33 60.1 °F 42.4 °F 29.88 in WNW 5.8 mph 5.8 mph 52 % 0.00 in
11:35 60.3 °F 42.6 °F 29.88 in West 9.2 mph 9.2 mph 52 % 0.00 in
11:41 60.3 °F 42.6 °F 29.88 in WSW 6.9 mph 6.9 mph 52 % 0.00 in
11:46 60.4 °F 42.2 °F 29.88 in West 9.2 mph 9.2 mph 51 % 0.00 in
11:47 60.4 °F 42.2 °F 29.88 in WSW 8.1 mph 8.1 mph 51 % 0.00 in
11:50 60.6 °F 42.4 °F 29.88 in WSW 6.0 mph 6.0 mph 51 % 0.00 in
11:55 60.6 °F 42.4 °F 29.88 in SW 8.1 mph 8.1 mph 51 % 0.00 in
11:58 60.8 °F 42.5 °F 29.88 in SW 5.9 mph 5.9 mph 51 % 0.00 in
12:03 60.6 °F 42.4 °F 29.88 in WNW 9.2 mph 9.2 mph 51 % 0.00 in
12:04 60.6 °F 42.4 °F 29.88 in West 6.9 mph 6.9 mph 51 % 0.00 in
12:09 60.6 °F 42.4 °F 29.85 in West 8.1 mph 8.1 mph 51 % 0.00 in
12:12 60.8 °F 42.5 °F 29.85 in East 3.5 mph 3.8 mph 51 % 0.00 in
12:16 60.8 °F 42.5 °F 29.85 in SW 9.2 mph 9.2 mph 51 % 0.00 in
12:18 60.8 °F 42.5 °F 29.85 in West 7.4 mph 7.4 mph 51 % 0.00 in
12:19 61.0 °F 42.7 °F 29.85 in WSW 5.8 mph 5.8 mph 51 % 0.00 in
12:24 61.0 °F 42.2 °F 29.83 in WSW 8.1 mph 8.1 mph 50 % 0.00 in
12:29 61.3 °F 42.5 °F 29.83 in West 10.4 mph 10.4 mph 50 % 0.00 in
12:34 61.5 °F 42.7 °F 29.83 in WNW 10.4 mph 10.4 mph 50 % 0.00 in
12:36 61.5 °F 42.7 °F 29.83 in WNW 9.2 mph 9.2 mph 50 % 0.00 in
12:38 61.9 °F 43.0 °F 29.83 in WNW 12.1 mph 12.1 mph 50 % 0.00 in
12:43 61.5 °F 42.2 °F 29.83 in WSW 13.8 mph 13.8 mph 49 % 0.00 in
12:48 61.7 °F 42.3 °F 29.83 in WNW 6.9 mph 6.9 mph 49 % 0.00 in
12:49 61.5 °F 42.2 °F 29.83 in NW 10.4 mph 10.4 mph 49 % 0.00 in
12:54 61.5 °F 41.6 °F 29.83 in WNW 10.4 mph 10.4 mph 48 % 0.00 in
12:55 61.7 °F 42.3 °F 29.83 in WSW 9.2 mph 9.2 mph 49 % 0.00 in
13:00 61.9 °F 42.0 °F 29.83 in WSW 6.0 mph 6.0 mph 48 % 0.00 in
13:01 61.9 °F 42.0 °F 29.83 in SW 8.1 mph 8.1 mph 48 % 0.00 in
13:05 62.1 °F 42.1 °F 29.83 in WNW 6.0 mph 6.0 mph 48 % 0.00 in
13:07 62.2 °F 42.3 °F 29.83 in WNW 5.8 mph 5.8 mph 48 % 0.00 in
13:12 62.6 °F 42.1 °F 29.83 in SW 9.2 mph 9.2 mph 47 % 0.00 in
13:17 62.6 °F 42.1 °F 29.83 in WSW 10.0 mph 10.0 mph 47 % 0.00 in
13:18 62.4 °F 42.5 °F 29.83 in NW 10.4 mph 10.4 mph 48 % 0.00 in
13:20 62.4 °F 42.5 °F 29.83 in West 10.4 mph 10.4 mph 48 % 0.00 in
13:25 62.6 °F 42.1 °F 29.80 in SSW 8.1 mph 8.1 mph 47 % 0.00 in
13:28 62.6 °F 42.1 °F 29.80 in WSW 5.8 mph 5.8 mph 47 % 0.00 in
13:33 63.3 °F 42.7 °F 29.80 in SW 6.9 mph 6.9 mph 47 % 0.00 in
13:34 63.3 °F 42.7 °F 29.80 in WNW 5.8 mph 5.8 mph 47 % 0.00 in
13:38 63.3 °F 42.2 °F 29.77 in SW 8.1 mph 8.1 mph 46 % 0.00 in
13:40 63.1 °F 42.0 °F 29.77 in West 9.2 mph 9.2 mph 46 % 0.00 in
13:43 63.1 °F 42.0 °F 29.77 in SW 6.9 mph 6.9 mph 46 % 0.00 in
13:48 63.1 °F 42.0 °F 29.77 in WNW 9.2 mph 9.2 mph 46 % 0.00 in
13:49 63.3 °F 42.2 °F 29.77 in WNW 4.6 mph 4.6 mph 46 % 0.00 in
13:50 63.1 °F 42.0 °F 29.77 in NW 4.9 mph 5.4 mph 46 % 0.00 in
13:54 63.0 °F 41.3 °F 29.80 in SSW 9.2 mph 9.2 mph 45 % 0.00 in
13:59 63.1 °F 42.0 °F 29.80 in WSW 4.6 mph 4.6 mph 46 % 0.00 in
14:03 63.7 °F 42.5 °F 29.80 in WNW 3.5 mph 3.5 mph 46 % 0.00 in
14:05 63.7 °F 42.5 °F 29.80 in WSW 3.0 mph 9.0 mph 46 % 0.00 in
14:10 63.7 °F 41.9 °F 29.77 in West 7.1 mph 7.1 mph 45 % 0.00 in
14:11 63.7 °F 42.5 °F 29.77 in WNW 8.1 mph 8.1 mph 46 % 0.00 in
14:16 63.7 °F 41.9 °F 29.77 in SSW 5.8 mph 5.8 mph 45 % 0.00 in
14:21 63.5 °F 41.8 °F 29.77 in West 5.8 mph 5.8 mph 45 % 0.00 in
14:23 63.7 °F 41.9 °F 29.77 in South 8.1 mph 8.1 mph 45 % 0.00 in
14:28 63.5 °F 41.8 °F 29.77 in West 5.8 mph 5.8 mph 45 % 0.00 in
14:32 63.5 °F 41.2 °F 29.77 in WNW 4.6 mph 5.4 mph 44 % 0.00 in
14:37 63.7 °F 41.3 °F 29.77 in WSW 6.9 mph 6.9 mph 44 % 0.00 in
14:38 63.7 °F 41.3 °F 29.77 in West 6.2 mph 6.2 mph 44 % 0.00 in
14:43 63.7 °F 41.3 °F 29.77 in WSW 10.4 mph 10.4 mph 44 % 0.00 in
14:44 63.7 °F 41.3 °F 29.77 in West 10.4 mph 10.4 mph 44 % 0.00 in
14:49 63.3 °F 41.0 °F 29.77 in WNW 10.4 mph 10.4 mph 44 % 0.00 in
14:51 63.3 °F 40.4 °F 29.77 in WNW 12.7 mph 12.7 mph 43 % 0.00 in
14:56 63.3 °F 41.0 °F 29.77 in West 8.1 mph 8.1 mph 44 % 0.00 in
14:59 63.7 °F 41.3 °F 29.77 in West 8.1 mph 8.1 mph 44 % 0.00 in
15:03 63.5 °F 41.2 °F 29.77 in WSW 5.8 mph 5.8 mph 44 % 0.00 in
15:08 63.3 °F 40.4 °F 29.77 in West 9.2 mph 9.2 mph 43 % 0.00 in
15:13 63.5 °F 40.6 °F 29.77 in WSW 6.9 mph 6.9 mph 43 % 0.00 in
15:14 63.5 °F 40.6 °F 29.77 in WSW 8.1 mph 8.1 mph 43 % 0.00 in
15:19 63.5 °F 40.6 °F 29.77 in WSW 10.4 mph 10.4 mph 43 % 0.00 in
15:24 63.5 °F 40.6 °F 29.77 in WSW 5.8 mph 5.8 mph 43 % 0.00 in
15:26 63.5 °F 40.6 °F 29.77 in WNW 5.8 mph 5.8 mph 43 % 0.00 in
15:31 63.7 °F 40.8 °F 29.77 in WSW 4.6 mph 4.6 mph 43 % 0.00 in
15:33 63.7 °F 40.8 °F 29.77 in West 6.9 mph 6.9 mph 43 % 0.00 in
15:38 63.7 °F 40.8 °F 29.77 in SSW 4.6 mph 4.6 mph 43 % 0.00 in
15:40 63.9 °F 40.9 °F 29.77 in West 8.1 mph 8.1 mph 43 % 0.00 in
15:43 63.7 °F 40.8 °F 29.77 in NW 8.1 mph 8.1 mph 43 % 0.00 in
15:48 63.7 °F 40.1 °F 29.77 in SW 3.5 mph 4.0 mph 42 % 0.00 in
15:49 63.9 °F 40.9 °F 29.77 in WSW 4.9 mph 4.9 mph 43 % 0.00 in
15:54 64.0 °F 40.5 °F 29.74 in West 5.8 mph 5.8 mph 42 % 0.00 in
15:59 63.7 °F 40.1 °F 29.74 in WSW 9.2 mph 9.2 mph 42 % 0.00 in
16:00 63.7 °F 40.1 °F 29.74 in WSW 9.2 mph 9.2 mph 42 % 0.00 in
16:05 63.1 °F 39.0 °F 29.74 in WSW 8.1 mph 8.1 mph 41 % 0.00 in
16:10 63.3 °F 39.8 °F 29.74 in WSW 7.1 mph 7.1 mph 42 % 0.00 in
16:15 63.3 °F 39.8 °F 29.74 in SW 5.8 mph 5.8 mph 42 % 0.00 in
16:17 63.5 °F 40.0 °F 29.74 in WSW 2.6 mph 2.6 mph 42 % 0.00 in
16:18 63.5 °F 40.0 °F 29.74 in WSW 7.8 mph 7.8 mph 42 % 0.00 in
16:23 63.1 °F 39.7 °F 29.77 in West 3.5 mph 3.5 mph 42 % 0.00 in
16:28 63.3 °F 39.8 °F 29.77 in SW 4.6 mph 4.6 mph 42 % 0.00 in
16:33 63.1 °F 39.7 °F 29.77 in WSW 5.8 mph 5.8 mph 42 % 0.00 in
16:35 63.0 °F 39.5 °F 29.77 in WSW 5.8 mph 5.9 mph 42 % 0.00 in
16:40 62.6 °F 39.2 °F 29.77 in WNW 5.8 mph 5.8 mph 42 % 0.00 in
16:43 62.6 °F 39.2 °F 29.77 in West 4.6 mph 4.6 mph 42 % 0.00 in
16:48 62.4 °F 39.0 °F 29.77 in WSW 5.8 mph 5.8 mph 42 % 0.00 in
16:53 62.2 °F 38.8 °F 29.77 in WSW 8.1 mph 8.1 mph 42 % 0.00 in
16:58 62.1 °F 38.7 °F 29.77 in WSW 3.5 mph 3.5 mph 42 % 0.00 in
17:03 61.7 °F 38.4 °F 29.77 in WNW 5.8 mph 5.8 mph 42 % 0.00 in
17:05 61.5 °F 38.2 °F 29.77 in SW 5.8 mph 5.8 mph 42 % 0.00 in
17:10 61.3 °F 38.6 °F 29.74 in WNW 4.6 mph 4.6 mph 43 % 0.00 in
17:13 61.2 °F 37.9 °F 29.74 in WSW 5.8 mph 5.8 mph 42 % 0.00 in
17:18 61.0 °F 37.7 °F 29.74 in WSW 4.6 mph 4.6 mph 42 % 0.00 in
17:23 60.4 °F 37.2 °F 29.74 in SW 4.9 mph 4.9 mph 42 % 0.00 in
17:28 60.1 °F 36.9 °F 29.74 in SW 6.9 mph 6.9 mph 42 % 0.00 in
17:34 59.5 °F 36.4 °F 29.74 in West 4.6 mph 4.6 mph 42 % 0.00 in
17:37 59.5 °F 36.4 °F 29.74 in WSW 3.5 mph 3.5 mph 42 % 0.00 in
17:42 59.2 °F 36.1 °F 29.74 in SSW 4.6 mph 4.6 mph 42 % 0.00 in
17:44 59.2 °F 36.1 °F 29.74 in West 5.6 mph 5.6 mph 42 % 0.00 in
17:49 58.8 °F 36.4 °F 29.74 in WSW 4.6 mph 4.6 mph 43 % 0.00 in
17:51 58.6 °F 36.2 °F 29.77 in WSW 5.8 mph 5.8 mph 43 % 0.00 in
17:53 58.6 °F 36.2 °F 29.77 in West 5.8 mph 5.8 mph 43 % 0.00 in
17:58 58.5 °F 36.0 °F 29.77 in WSW 4.6 mph 4.6 mph 43 % 0.00 in
17:59 58.5 °F 36.0 °F 29.77 in WSW 6.2 mph 6.2 mph 43 % 0.00 in
18:04 58.1 °F 35.7 °F 29.77 in WSW 3.5 mph 3.5 mph 43 % 0.00 in
18:07 57.7 °F 35.4 °F 29.74 in SW 5.8 mph 5.8 mph 43 % 0.00 in
18:12 57.7 °F 35.4 °F 29.74 in West 5.8 mph 5.8 mph 43 % 0.00 in
18:13 57.7 °F 35.4 °F 29.74 in WSW 4.6 mph 4.6 mph 43 % 0.00 in
18:18 57.6 °F 35.2 °F 29.74 in WSW 4.7 mph 4.7 mph 43 % 0.00 in
18:23 57.4 °F 35.0 °F 29.74 in WSW 4.6 mph 4.6 mph 43 % 0.00 in
18:26 57.4 °F 35.0 °F 29.74 in West 4.6 mph 4.6 mph 43 % 0.00 in
18:33 57.2 °F 35.5 °F 29.74 in West 4.3 mph 4.3 mph 44 % 0.00 in
18:36 57.2 °F 35.5 °F 29.77 in WSW 4.6 mph 4.6 mph 44 % 0.00 in
18:40 57.2 °F 35.5 °F 29.77 in WSW 3.5 mph 3.5 mph 44 % 0.00 in
18:43 57.2 °F 35.5 °F 29.77 in West 3.5 mph 3.5 mph 44 % 0.00 in
18:45 57.2 °F 35.5 °F 29.77 in West 2.3 mph 2.3 mph 44 % 0.00 in
18:50 57.0 °F 35.3 °F 29.77 in West 2.4 mph 2.4 mph 44 % 0.00 in
18:55 56.8 °F 35.1 °F 29.77 in SW 2.3 mph 2.3 mph 44 % 0.00 in
19:00 56.7 °F 35.0 °F 29.77 in ESE 1.2 mph   44 % 0.00 in
19:05 56.3 °F 34.6 °F 29.77 in ESE 1.6 mph 1.6 mph 44 % 0.00 in
19:11 56.1 °F 34.5 °F 29.77 in ESE 2.9 mph 2.9 mph 44 % 0.00 in
19:12 55.9 °F 34.3 °F 29.77 in ESE 2.3 mph 2.3 mph 44 % 0.00 in
19:13 55.9 °F 34.3 °F 29.77 in ESE 2.3 mph 2.3 mph 44 % 0.00 in
19:18 55.6 °F 34.0 °F 29.77 in Calm     44 % 0.00 in
19:23 55.2 °F 33.7 °F 29.77 in Calm     44 % 0.00 in
19:25 55.0 °F 33.5 °F 29.77 in SW 1.4 mph 1.4 mph 44 % 0.00 in
19:30 54.9 °F 33.3 °F 29.77 in SW 1.4 mph 1.4 mph 44 % 0.00 in
19:31 54.9 °F 33.3 °F 29.77 in SW 2.3 mph 2.3 mph 44 % 0.00 in
19:33 54.9 °F 33.9 °F 29.77 in Calm     45 % 0.00 in
19:38 54.7 °F 33.7 °F 29.77 in WSW 2.3 mph 2.3 mph 45 % 0.00 in
19:40 45.0 °F 30.2 °F 29.71 in ENE 1.0 mph 2.0 mph 56 % 0.00 in
19:43 54.7 °F 33.7 °F 29.77 in WSW 2.4 mph 2.4 mph 45 % 0.00 in
19:48 54.9 °F 33.9 °F 29.77 in West 2.3 mph 2.3 mph 45 % 0.00 in
19:52 54.7 °F 33.7 °F 29.77 in NW 2.3 mph 2.3 mph 45 % 0.00 in
19:55 54.7 °F 33.7 °F 29.77 in West 2.3 mph 2.3 mph 45 % 0.00 in
20:00 54.7 °F 33.7 °F 29.77 in SE 2.3 mph   45 % 0.00 in
20:01 54.7 °F 33.7 °F 29.77 in South 1.2 mph   45 % 0.00 in
20:06 54.3 °F 34.0 °F 29.77 in South 1.2 mph   46 % 0.00 in
20:07 54.1 °F 33.8 °F 29.77 in South 1.2 mph 1.2 mph 46 % 0.00 in
20:11 53.8 °F 33.5 °F 29.77 in South 1.2 mph 1.2 mph 46 % 0.00 in
20:16 53.6 °F 33.3 °F 29.77 in SSW 1.2 mph 1.2 mph 46 % 0.00 in
20:18 53.4 °F 33.1 °F 29.77 in SSW 1.2 mph 1.2 mph 46 % 0.00 in
20:23 53.4 °F 33.1 °F 29.77 in Calm     46 % 0.00 in
20:28 53.1 °F 32.8 °F 29.77 in SW 2.3 mph 2.3 mph 46 % 0.00 in
20:30 43.9 °F 30.0 °F 29.71 in SE 1.0 mph 2.0 mph 58 % 0.00 in
20:31 52.7 °F 32.5 °F 29.77 in WSW 2.3 mph 2.3 mph 46 % 0.00 in
20:34 52.7 °F 32.5 °F 29.77 in WSW 2.3 mph 2.3 mph 46 % 0.00 in
20:39 52.9 °F 32.6 °F 29.77 in WSW 2.3 mph 2.3 mph 46 % 0.00 in
20:45 52.9 °F 33.2 °F 29.77 in WSW 1.0 mph 2.0 mph 47 % 0.00 in
20:46 52.7 °F 33.0 °F 29.77 in SW 2.3 mph 2.3 mph 47 % 0.00 in
20:50 43.5 °F 29.7 °F 29.71 in SW 1.0 mph 2.0 mph 58 % 0.00 in
20:51 52.3 °F 32.7 °F 29.77 in SW 1.6 mph   47 % 0.00 in
20:56 52.0 °F 32.4 °F 29.77 in SW 1.2 mph 1.2 mph 47 % 0.00 in
21:00 43.5 °F 30.1 °F 29.71 in WSW 1.0 mph 2.0 mph 59 % 0.00 in
21:01 51.8 °F 32.2 °F 29.77 in SW 1.4 mph   47 % 0.00 in
21:07 52.0 °F 32.9 °F 29.77 in SW 1.2 mph 1.4 mph 48 % 0.00 in
21:08 51.8 °F 32.7 °F 29.77 in SW 1.2 mph 1.2 mph 48 % 0.00 in
21:13 51.6 °F 32.6 °F 29.77 in SW 2.2 mph 2.2 mph 48 % 0.00 in
21:16 51.4 °F 32.4 °F 29.77 in SW 2.3 mph 2.3 mph 48 % 0.00 in
21:21 51.3 °F 32.2 °F 29.77 in WSW 1.2 mph   48 % 0.00 in
21:22 51.3 °F 32.2 °F 29.77 in WSW 1.2 mph   48 % 0.00 in
21:27 51.3 °F 32.2 °F 29.77 in WSW 1.2 mph 1.2 mph 48 % 0.00 in
21:30 43.3 °F 30.4 °F 29.71 in Calm   1.0 mph 60 % 0.00 in
21:32 51.3 °F 32.7 °F 29.77 in Calm     49 % 0.00 in
21:35 51.3 °F 32.7 °F 29.77 in Calm     49 % 0.00 in
21:38 51.3 °F 32.7 °F 29.74 in West 1.6 mph   49 % 0.00 in
21:40 43.0 °F 30.0 °F 29.71 in Calm     60 % 0.00 in
21:43 51.4 °F 32.9 °F 29.74 in Calm     49 % 0.00 in
21:46 51.4 °F 32.9 °F 29.74 in West 2.4 mph 2.4 mph 49 % 0.00 in
21:49 51.6 °F 33.1 °F 29.74 in WSW 3.5 mph 3.5 mph 49 % 0.00 in
21:50 43.0 °F 30.4 °F 29.68 in Calm     61 % 0.00 in
21:52 51.8 °F 33.2 °F 29.74 in WNW 3.1 mph 3.1 mph 49 % 0.00 in
21:57 51.8 °F 33.2 °F 29.74 in SSW 2.3 mph   49 % 0.00 in
21:58 51.8 °F 33.2 °F 29.74 in SSW 1.4 mph   49 % 0.00 in
21:59 51.6 °F 33.1 °F 29.74 in SSW 1.6 mph 1.6 mph 49 % 0.00 in
22:03 51.3 °F 32.7 °F 29.74 in SW 2.9 mph 2.9 mph 49 % 0.00 in
22:08 50.7 °F 32.2 °F 29.74 in South 3.5 mph 3.5 mph 49 % 0.00 in
22:10 42.4 °F 29.9 °F 29.68 in East 1.0 mph 1.0 mph 61 % 0.00 in
22:12 50.7 °F 32.7 °F 29.74 in WSW 3.5 mph 3.5 mph 50 % 0.00 in
22:13 50.7 °F 32.7 °F 29.74 in WSW 2.4 mph 2.4 mph 50 % 0.00 in
22:18 50.5 °F 32.6 °F 29.74 in SW 2.9 mph 2.9 mph 50 % 0.00 in
22:23 50.4 °F 32.4 °F 29.74 in SW 4.6 mph 4.6 mph 50 % 0.00 in
22:25 50.4 °F 32.4 °F 29.74 in WSW 4.6 mph 4.6 mph 50 % 0.00 in
22:30 50.5 °F 32.6 °F 29.74 in West 3.5 mph 3.5 mph 50 % 0.00 in
22:31 50.5 °F 32.6 °F 29.74 in WSW 3.5 mph 3.5 mph 50 % 0.00 in
22:32 50.7 °F 32.7 °F 29.74 in WSW 2.4 mph 2.4 mph 50 % 0.00 in
22:36 50.7 °F 32.7 °F 29.74 in SW 2.3 mph 2.3 mph 50 % 0.00 in
22:40 41.4 °F 29.3 °F 29.65 in SW 1.0 mph 2.0 mph 62 % 0.00 in
22:41 50.7 °F 32.7 °F 29.74 in WNW 2.3 mph 2.3 mph 50 % 0.00 in
22:44 50.5 °F 32.6 °F 29.74 in WNW 1.4 mph 1.6 mph 50 % 0.00 in
22:49 50.7 °F 33.2 °F 29.74 in West 2.3 mph 2.3 mph 51 % 0.00 in
22:54 50.7 °F 33.2 °F 29.77 in West 2.3 mph 2.3 mph 51 % 0.00 in
22:56 50.7 °F 33.2 °F 29.77 in WSW 2.4 mph 2.4 mph 51 % 0.00 in
22:59 50.7 °F 33.2 °F 29.77 in SW 2.3 mph 2.3 mph 51 % 0.00 in
23:03 50.5 °F 33.1 °F 29.77 in SW 1.2 mph 1.2 mph 51 % 0.00 in
23:06 50.4 °F 32.9 °F 29.74 in SW 0.9 mph   51 % 0.00 in
23:10 50.0 °F 32.6 °F 29.74 in Calm     51 % 0.00 in
23:15 49.8 °F 32.4 °F 29.74 in Calm     51 % 0.00 in
23:16 49.8 °F 32.4 °F 29.74 in Calm     51 % 0.00 in
23:19 49.5 °F 32.1 °F 29.74 in Calm     51 % 0.00 in
23:20 41.4 °F 30.1 °F 29.65 in WNW 1.0 mph 2.0 mph 64 % 0.00 in
23:23 49.3 °F 31.9 °F 29.74 in ENE 1.4 mph 1.4 mph 51 % 0.00 in
23:28 49.3 °F 32.4 °F 29.74 in ENE 1.6 mph   52 % 0.00 in
23:30 49.3 °F 32.4 °F 29.74 in ENE 1.2 mph 1.4 mph 52 % 0.00 in
23:32 49.3 °F 32.4 °F 29.74 in ENE 2.3 mph 2.3 mph 52 % 0.00 in
23:35 49.3 °F 32.4 °F 29.74 in Calm     52 % 0.00 in
23:40 49.3 °F 32.4 °F 29.74 in Calm     52 % 0.00 in
23:45 48.9 °F 32.0 °F 29.74 in WNW 2.0 mph   52 % 0.00 in
23:47 48.9 °F 32.0 °F 29.74 in WNW 2.3 mph 2.3 mph 52 % 0.00 in
23:52 48.6 °F 31.7 °F 29.74 in Calm     52 % 0.00 in
23:53 48.4 °F 31.5 °F 29.74 in Calm     52 % 0.00 in
23:54 48.4 °F 31.5 °F 29.74 in Calm     52 % 0.00 in
Meteo Sesrovires
Elogis d' Weather Underground - 1.75 mb

Guio original per  Jim McMurry - jmcmurry@mwt.net Adaptat per a la plantilla per  Wim van der Kuil - Leuven-Template.eu

Trobareu la nostra informacio del temps tambe a:

Weather Underground

AWEKAS